Time;durP1;ratioP1;P1;durP2;ratioP2;P2;SDS_P1;SDS_P2;PMS_P1;PMS_P2;Temp;Humidity;BMP_temperature;BMP_pressure;BME280_temperature;BME280_humidity;BME280_pressure;Samples;Min_cycle;Max_cycle;Signal;HPM_P1;HPM_P2
2023/08/05 00:00:26;;;;;;;9.48;7.05;;;14.40;99.90;;;;;;4915167;29;20569;-89
2023/08/05 00:02:52;;;;;;;10.10;7.40;;;14.40;99.90;;;;;;4914588;29;20907;-88
2023/08/05 00:05:17;;;;;;;9.70;6.95;;;14.40;99.90;;;;;;4914558;29;20579;-89
2023/08/05 00:07:43;;;;;;;9.40;6.67;;;14.30;99.90;;;;;;4915335;29;20430;-90
2023/08/05 00:10:09;;;;;;;12.63;7.97;;;14.50;99.90;;;;;;4930085;29;20864;-90
2023/08/05 00:12:35;;;;;;;11.25;7.45;;;14.60;99.90;;;;;;4914845;29;20447;-89
2023/08/05 00:15:01;;;;;;;11.60;7.53;;;14.50;99.90;;;;;;4913946;29;20408;-88
2023/08/05 00:17:26;;;;;;;11.90;8.63;;;14.40;99.90;;;;;;4930214;29;20415;-89
2023/08/05 00:19:52;;;;;;;21.45;14.98;;;14.30;99.90;;;;;;4914811;29;20511;-88
2023/08/05 00:22:18;;;;;;;20.63;14.33;;;14.30;99.90;;;;;;4914895;29;20418;-89
2023/08/05 00:24:43;;;;;;;14.65;10.30;;;14.30;99.90;;;;;;4914882;29;20451;-89
2023/08/05 00:27:09;;;;;;;13.40;8.87;;;14.30;99.90;;;;;;4929796;29;20424;-89
2023/08/05 00:29:35;;;;;;;12.00;7.50;;;14.10;99.90;;;;;;4914799;29;20419;-89
2023/08/05 00:32:00;;;;;;;12.48;8.05;;;14.10;99.90;;;;;;4930368;29;20447;-88
2023/08/05 00:34:26;;;;;;;12.60;8.20;;;14.00;99.90;;;;;;4930621;29;20843;-88
2023/08/05 00:36:51;;;;;;;9.45;7.63;;;14.00;99.90;;;;;;4930617;29;20908;-88
2023/08/05 00:39:18;;;;;;;12.90;8.17;;;14.00;99.90;;;;;;4914091;29;20510;-89
2023/08/05 00:41:43;;;;;;;13.03;8.47;;;13.80;99.90;;;;;;4914500;29;20915;-89
2023/08/05 00:44:09;;;;;;;12.73;8.10;;;14.20;99.90;;;;;;4929865;29;20779;-88
2023/08/05 00:46:35;;;;;;;9.10;6.75;;;13.70;99.90;;;;;;4914468;29;20420;-89
2023/08/05 00:49:00;;;;;;;11.70;7.87;;;13.60;99.90;;;;;;4914053;29;20470;-89
2023/08/05 00:51:26;;;;;;;10.48;7.32;;;13.70;99.90;;;;;;4914182;29;20450;-89
2023/08/05 00:53:52;;;;;;;12.53;7.33;;;13.60;99.90;;;;;;4929792;29;20420;-89
2023/08/05 00:56:17;;;;;;;12.13;8.30;;;13.60;99.90;;;;;;4914268;29;20412;-87
2023/08/05 00:58:44;;;;;;;13.20;8.38;;;13.50;99.90;;;;;;4914357;29;20559;-88
2023/08/05 01:01:10;;;;;;;11.68;8.00;;;13.80;99.90;;;;;;4929567;29;20410;-89
2023/08/05 01:03:36;;;;;;;12.85;8.30;;;13.40;99.90;;;;;;4913802;29;20418;-88
2023/08/05 01:06:06;;;;;;;11.47;8.60;;;13.40;99.90;;;;;;4929147;29;20423;-88
2023/08/05 01:08:33;;;;;;;14.07;9.10;;;13.30;99.90;;;;;;4914194;29;20416;-89
2023/08/05 01:11:00;;;;;;;18.95;12.77;;;13.40;99.90;;;;;;4913187;29;20423;-88
2023/08/05 01:13:26;;;;;;;14.15;10.70;;;13.30;99.90;;;;;;4913820;29;20470;-88
2023/08/05 01:15:52;;;;;;;11.23;8.15;;;13.20;99.90;;;;;;4913745;29;20839;-89
2023/08/05 01:18:18;;;;;;;11.00;8.33;;;13.30;99.90;;;;;;4913409;29;20412;-88
2023/08/05 01:20:46;;;;;;;16.05;11.23;;;13.30;99.90;;;;;;4913751;29;20911;-88
2023/08/05 01:23:33;;;;;;;15.25;9.88;;;13.50;99.90;;;;;;4913460;29;20904;-89
2023/08/05 01:26:00;;;;;;;15.43;10.27;;;13.30;99.90;;;;;;4913545;29;20451;-89
2023/08/05 01:28:26;;;;;;;16.75;11.73;;;13.30;99.90;;;;;;4912865;29;20411;-88
2023/08/05 01:30:52;;;;;;;15.30;9.48;;;13.50;99.90;;;;;;4929265;29;20423;-89
2023/08/05 01:33:19;;;;;;;13.30;8.73;;;13.30;99.90;;;;;;4913278;29;20455;-89
2023/08/05 01:35:51;;;;;;;10.95;8.55;;;13.30;99.90;;;;;;4913242;29;20451;-88
2023/08/05 01:38:16;;;;;;;14.60;8.55;;;13.40;99.90;;;;;;4913485;29;20752;-89
2023/08/05 01:40:43;;;;;;;16.50;10.03;;;13.40;99.90;;;;;;4928531;29;20423;-89
2023/08/05 01:43:09;;;;;;;11.55;8.95;;;13.40;99.90;;;;;;4913068;29;20531;-88
2023/08/05 01:45:34;;;;;;;15.33;10.10;;;13.40;99.90;;;;;;4928701;29;20514;-88
2023/08/05 01:48:00;;;;;;;13.40;8.73;;;13.40;99.90;;;;;;4929324;29;20471;-89
2023/08/05 01:50:25;;;;;;;15.63;8.88;;;13.50;99.90;;;;;;4928309;29;20911;-88
2023/08/05 01:52:53;;;;;;;12.57;8.30;;;13.50;99.90;;;;;;4912564;29;20431;-87
2023/08/05 01:55:19;;;;;;;10.03;7.67;;;13.60;99.90;;;;;;4928721;29;20434;-89
2023/08/05 01:57:44;;;;;;;12.87;7.67;;;13.60;99.90;;;;;;4912104;29;20524;-89
2023/08/05 02:00:10;;;;;;;10.05;7.47;;;13.60;99.90;;;;;;4912723;29;20924;-89
2023/08/05 02:02:36;;;;;;;9.60;7.72;;;13.70;99.90;;;;;;4912476;29;20415;-88
2023/08/05 02:05:02;;;;;;;11.97;7.33;;;13.60;99.90;;;;;;4912638;29;20483;-88
2023/08/05 02:07:27;;;;;;;11.10;8.40;;;13.60;99.90;;;;;;4912482;29;20427;-88
2023/08/05 02:09:53;;;;;;;14.13;9.27;;;13.60;99.90;;;;;;4928653;29;21004;-88
2023/08/05 02:12:18;;;;;;;14.32;9.23;;;14.00;99.90;;;;;;4912214;29;20738;-88
2023/08/05 02:14:44;;;;;;;23.60;16.77;;;14.00;99.90;;;;;;4912143;29;20426;-90
2023/08/05 02:17:09;;;;;;;14.80;10.80;;;13.50;99.90;;;;;;4912710;29;20415;-88
2023/08/05 02:19:35;;;;;;;12.37;9.00;;;13.50;99.90;;;;;;4911954;29;20454;-89
2023/08/05 02:22:00;;;;;;;12.60;9.68;;;13.60;99.90;;;;;;4912140;29;20931;-88
2023/08/05 02:24:26;;;;;;;9.97;7.83;;;13.60;99.90;;;;;;4912305;29;20423;-88
2023/08/05 02:26:52;;;;;;;13.95;9.13;;;13.60;99.90;;;;;;4912361;29;20522;-88
2023/08/05 02:29:17;;;;;;;15.73;9.00;;;13.70;99.90;;;;;;4912435;29;20908;-89
2023/08/05 02:31:43;;;;;;;13.35;9.40;;;13.60;99.90;;;;;;4912569;29;20511;-88
2023/08/05 02:34:09;;;;;;;18.20;12.40;;;13.80;99.90;;;;;;4927981;29;20411;-88
2023/08/05 02:36:34;;;;;;;20.90;14.97;;;13.60;99.90;;;;;;4911876;29;20415;-88
2023/08/05 02:39:00;;;;;;;16.48;9.98;;;13.60;99.90;;;;;;4911580;29;20775;-88
2023/08/05 02:41:26;;;;;;;16.30;10.30;;;13.80;99.90;;;;;;4911792;29;20427;-86
2023/08/05 02:43:51;;;;;;;14.30;9.43;;;13.60;99.90;;;;;;4912581;29;20419;-88
2023/08/05 02:46:17;;;;;;;11.63;8.77;;;13.60;99.90;;;;;;4912466;29;20419;-87
2023/08/05 02:48:43;;;;;;;16.33;10.20;;;13.60;99.90;;;;;;4912422;29;20450;-89
2023/08/05 02:51:08;;;;;;;15.75;9.88;;;13.60;99.90;;;;;;4927654;29;20439;-89
2023/08/05 02:53:34;;;;;;;14.27;10.43;;;13.60;99.90;;;;;;4912251;29;20808;-89
2023/08/05 02:56:00;;;;;;;16.70;10.68;;;14.20;99.90;;;;;;4912032;29;20426;-89
2023/08/05 02:58:26;;;;;;;14.73;9.57;;;13.90;99.90;;;;;;4911604;29;20423;-89
2023/08/05 03:00:52;;;;;;;16.33;10.30;;;13.70;99.90;;;;;;4944124;29;20418;-89
2023/08/05 03:03:17;;;;;;;13.13;9.20;;;13.70;99.90;;;;;;4931015;29;20418;-88
2023/08/05 03:05:43;;;;;;;12.93;9.05;;;13.70;99.90;;;;;;4979099;28;20425;-88
2023/08/05 03:08:10;;;;;;;15.05;9.77;;;13.70;99.90;;;;;;4962322;28;20541;-88
2023/08/05 03:10:37;;;;;;;13.45;9.20;;;13.70;99.90;;;;;;4946411;29;20413;-90
2023/08/05 03:13:03;;;;;;;13.02;8.80;;;13.70;99.90;;;;;;4930980;29;20492;-89
2023/08/05 03:15:29;;;;;;;12.13;8.60;;;13.80;99.90;;;;;;4962615;28;20909;-89
2023/08/05 03:17:55;;;;;;;12.68;8.70;;;13.80;99.90;;;;;;4962759;28;20414;-90
2023/08/05 03:20:25;;;;;;;12.98;8.90;;;13.80;99.90;;;;;;4962848;28;20406;-88
2023/08/05 03:22:52;;;;;;;15.45;8.95;;;13.90;99.90;;;;;;4930811;29;20420;-88
2023/08/05 03:25:18;;;;;;;12.38;8.63;;;13.90;99.90;;;;;;4931366;29;20912;-88
2023/08/05 03:27:44;;;;;;;11.75;8.05;;;13.90;99.90;;;;;;4930482;29;20414;-88
2023/08/05 03:30:10;;;;;;;12.98;8.57;;;14.40;99.90;;;;;;4963004;28;20868;-89
2023/08/05 03:32:35;;;;;;;12.20;8.70;;;13.90;99.90;;;;;;4946235;29;20449;-89
2023/08/05 03:35:01;;;;;;;13.75;8.45;;;14.20;99.90;;;;;;4962138;28;20500;-88
2023/08/05 03:37:27;;;;;;;12.80;8.50;;;13.90;99.90;;;;;;4962741;28;20913;-88
2023/08/05 03:39:52;;;;;;;12.48;8.05;;;13.90;99.90;;;;;;4978752;28;20410;-89
2023/08/05 03:42:18;;;;;;;11.30;8.00;;;14.00;99.90;;;;;;4946515;29;20422;-88
2023/08/05 03:44:43;;;;;;;14.43;8.60;;;13.90;99.90;;;;;;4946869;29;20546;-89
2023/08/05 03:47:09;;;;;;;13.30;8.33;;;14.30;99.90;;;;;;4978991;28;21095;-88
2023/08/05 03:49:34;;;;;;;10.38;8.05;;;13.90;99.90;;;;;;4978985;28;20428;-89
2023/08/05 03:52:02;;;;;;;11.63;8.37;;;14.00;99.90;;;;;;4966305;28;20422;-89
2023/08/05 03:54:27;;;;;;;12.63;8.73;;;14.10;99.90;;;;;;4933368;29;20426;-88
2023/08/05 03:56:53;;;;;;;12.73;8.63;;;14.30;99.90;;;;;;4965900;28;20509;-89
2023/08/05 03:59:20;;;;;;;13.13;8.60;;;14.00;99.90;;;;;;4949843;29;20421;-89
2023/08/05 04:01:45;;;;;;;13.88;9.23;;;14.00;99.90;;;;;;4950234;29;20779;-89
2023/08/05 04:04:11;;;;;;;12.70;8.47;;;14.00;99.90;;;;;;4966267;28;20409;-89
2023/08/05 04:06:37;;;;;;;12.27;8.30;;;14.10;99.90;;;;;;4965984;28;20454;-88
2023/08/05 04:09:05;;;;;;;10.53;7.87;;;14.10;99.90;;;;;;4965346;28;20461;-88
2023/08/05 04:11:32;;;;;;;9.80;7.82;;;14.10;99.90;;;;;;4932987;29;20485;-87
2023/08/05 04:13:59;;;;;;;12.80;7.43;;;14.10;99.90;;;;;;4949791;29;20436;-88
2023/08/05 04:16:25;;;;;;;11.35;7.18;;;14.10;99.90;;;;;;4981659;28;20872;-89
2023/08/05 04:18:52;;;;;;;10.43;7.60;;;14.10;99.90;;;;;;4949743;29;20855;-88
2023/08/05 04:21:19;;;;;;;11.20;7.65;;;14.20;99.90;;;;;;4949458;29;20565;-88
2023/08/05 04:23:46;;;;;;;11.05;6.95;;;14.20;99.90;;;;;;4965196;28;20410;-88
2023/08/05 04:26:12;;;;;;;12.43;7.70;;;14.20;99.90;;;;;;4949228;29;20971;-88
2023/08/05 04:28:38;;;;;;;10.13;7.07;;;14.20;99.90;;;;;;4965070;28;20481;-90
2023/08/05 04:31:04;;;;;;;9.27;7.03;;;14.20;99.90;;;;;;4981705;28;20461;-88
2023/08/05 04:33:31;;;;;;;9.13;6.90;;;14.30;99.90;;;;;;4933017;29;20414;-87
2023/08/05 04:35:59;;;;;;;12.65;7.10;;;14.30;99.90;;;;;;4965230;28;20421;-88
2023/08/05 04:38:25;;;;;;;8.75;6.82;;;14.30;99.90;;;;;;4932966;29;20968;-89
2023/08/05 04:40:50;;;;;;;7.90;6.32;;;14.40;99.90;;;;;;4965096;28;20530;-88
2023/08/05 04:43:16;;;;;;;8.45;5.88;;;14.50;99.90;;;;;;4965048;28;20464;-89
2023/08/05 04:45:43;;;;;;;10.47;6.30;;;14.50;99.90;;;;;;4965033;28;20472;-89
2023/08/05 04:48:08;;;;;;;10.18;5.88;;;14.60;99.90;;;;;;4949253;29;20709;-88
2023/08/05 04:50:40;;;;;;;9.20;5.50;;;14.70;99.90;;;;;;4948738;29;20421;-89
2023/08/05 04:53:06;;;;;;;9.10;5.30;;;14.90;99.90;;;;;;4964735;28;20444;-88
2023/08/05 04:55:32;;;;;;;8.20;5.28;;;15.00;99.90;;;;;;4964862;28;20430;-88
2023/08/05 04:57:58;;;;;;;6.68;4.68;;;15.30;99.90;;;;;;4941944;29;20422;-89
2023/08/05 05:00:25;;;;;;;7.80;4.73;;;15.00;99.90;;;;;;4947457;29;20501;-88
2023/08/05 05:02:51;;;;;;;7.88;3.92;;;15.40;99.90;;;;;;4929751;29;20412;-88
2023/08/05 05:05:17;;;;;;;7.20;4.33;;;15.30;99.90;;;;;;4948401;29;20785;-88
2023/08/05 05:07:43;;;;;;;6.78;4.00;;;15.30;99.90;;;;;;4931688;29;20413;-88
2023/08/05 05:10:08;;;;;;;7.40;4.00;;;15.80;99.90;;;;;;4980496;28;20414;-89
2023/08/05 05:12:34;;;;;;;5.10;3.60;;;15.70;99.90;;;;;;4964024;28;20948;-88
2023/08/05 05:15:00;;;;;;;6.22;3.28;;;15.90;99.90;;;;;;4964520;28;20422;-87
2023/08/05 05:17:25;;;;;;;5.53;3.30;;;15.90;99.90;;;;;;4952168;28;20430;-88
2023/08/05 05:19:51;;;;;;;4.35;2.97;;;15.90;99.90;;;;;;4928974;29;20783;-88
2023/08/05 05:22:17;;;;;;;4.57;3.17;;;16.00;99.90;;;;;;4920072;29;20463;-88
2023/08/05 05:24:44;;;;;;;8.30;3.45;;;16.20;99.90;;;;;;4928485;29;20713;-89
2023/08/05 05:27:13;;;;;;;7.40;3.17;;;16.30;99.90;;;;;;4938075;28;20409;-89
2023/08/05 05:29:39;;;;;;;4.53;3.07;;;16.10;99.90;;;;;;4929781;29;20824;-88
2023/08/05 05:32:05;;;;;;;5.93;3.53;;;16.70;99.90;;;;;;4913278;29;20502;-88
2023/08/05 05:34:31;;;;;;;7.68;3.80;;;15.90;99.90;;;;;;4928775;29;20947;-89
2023/08/05 05:36:57;;;;;;;5.82;3.15;;;15.90;99.90;;;;;;4932107;29;20438;-88
2023/08/05 05:39:22;;;;;;;5.97;3.77;;;15.80;99.90;;;;;;4915400;29;20494;-88
2023/08/05 05:41:48;;;;;;;5.63;3.65;;;15.80;99.90;;;;;;4933919;29;20478;-88
2023/08/05 05:44:14;;;;;;;5.97;3.90;;;15.80;99.90;;;;;;4922256;29;20558;-89
2023/08/05 05:46:39;;;;;;;7.37;3.63;;;15.80;99.90;;;;;;4924902;29;20464;-88
2023/08/05 05:49:05;;;;;;;7.40;4.05;;;16.10;99.90;;;;;;4931009;29;20412;-88
2023/08/05 05:51:31;;;;;;;6.87;3.97;;;16.60;99.90;;;;;;4912311;29;20443;-88
2023/08/05 05:53:57;;;;;;;9.02;4.00;;;16.50;99.90;;;;;;4912959;29;20432;-87
2023/08/05 05:56:23;;;;;;;4.97;2.45;;;17.60;99.90;;;;;;4912305;29;20506;-88
2023/08/05 05:58:49;;;;;;;6.13;3.03;;;17.40;99.90;;;;;;4912735;29;20555;-89
2023/08/05 06:01:14;;;;;;;5.03;2.83;;;17.40;99.90;;;;;;4912299;29;20415;-88
2023/08/05 06:03:42;;;;;;;5.47;2.72;;;17.60;99.90;;;;;;4928230;29;20828;-89
2023/08/05 06:06:07;;;;;;;4.13;2.05;;;17.70;99.90;;;;;;4928313;29;20416;-89
2023/08/05 06:08:34;;;;;;;4.17;1.93;;;17.90;99.90;;;;;;4927721;29;20422;-88
2023/08/05 06:11:03;;;;;;;5.22;2.33;;;17.70;99.90;;;;;;4928478;29;20479;-88
2023/08/05 06:13:30;;;;;;;5.22;2.20;;;17.50;99.90;;;;;;4927317;29;20435;-87
2023/08/05 06:15:55;;;;;;;3.83;2.00;;;17.50;99.90;;;;;;4912127;29;20423;-89
2023/08/05 06:18:22;;;;;;;4.60;2.25;;;17.40;99.90;;;;;;4912213;29;20407;-88
2023/08/05 06:20:51;;;;;;;5.68;2.20;;;17.30;99.90;;;;;;4927925;29;20775;-89
2023/08/05 06:23:16;;;;;;;5.05;2.03;;;17.30;99.90;;;;;;4912196;29;20455;-88
2023/08/05 06:25:42;;;;;;;5.57;2.33;;;17.20;99.90;;;;;;4927551;29;20450;-88
2023/08/05 06:28:08;;;;;;;4.03;2.30;;;17.40;99.90;;;;;;4912061;29;20911;-89
2023/08/05 06:30:34;;;;;;;5.13;1.90;;;17.30;99.90;;;;;;4927773;29;20510;-88
2023/08/05 06:33:00;;;;;;;4.22;2.30;;;17.60;99.90;;;;;;4927848;29;20523;-89
2023/08/05 06:35:26;;;;;;;4.22;1.95;;;17.50;99.90;;;;;;4911982;29;20407;-89
2023/08/05 06:37:52;;;;;;;4.35;1.95;;;17.70;99.90;;;;;;4912211;29;20428;-89
2023/08/05 06:40:18;;;;;;;5.90;2.00;;;17.80;99.90;;;;;;4912046;29;20447;-88
2023/08/05 06:42:44;;;;;;;5.45;2.17;;;17.80;99.90;;;;;;4911759;29;20426;-88
2023/08/05 06:45:10;;;;;;;4.05;2.30;;;17.90;99.90;;;;;;4912160;29;20677;-88
2023/08/05 06:47:36;;;;;;;3.70;2.10;;;17.80;99.90;;;;;;4927216;29;20446;-89
2023/08/05 06:50:06;;;;;;;5.30;1.93;;;17.90;99.90;;;;;;4911860;29;20458;-89
2023/08/05 06:52:33;;;;;;;4.20;1.88;;;17.90;99.90;;;;;;4927426;29;20451;-89
2023/08/05 06:55:01;;;;;;;4.72;2.17;;;18.30;99.90;;;;;;4911656;29;20415;-88
2023/08/05 06:57:27;;;;;;;3.80;1.63;;;18.00;99.90;;;;;;4927798;29;20471;-87
2023/08/05 06:59:53;;;;;;;4.93;1.90;;;17.90;99.90;;;;;;4911061;29;20935;-87
2023/08/05 07:02:18;;;;;;;5.15;1.67;;;18.00;99.90;;;;;;4911707;29;20450;-88
2023/08/05 07:04:44;;;;;;;3.43;1.50;;;18.00;99.90;;;;;;4911734;29;20451;-88
2023/08/05 07:07:10;;;;;;;3.95;1.60;;;17.90;99.90;;;;;;4911790;29;20422;-89
2023/08/05 07:09:35;;;;;;;3.53;1.70;;;18.10;99.90;;;;;;4927583;29;20941;-87
2023/08/05 07:12:01;;;;;;;2.58;1.42;;;17.80;99.90;;;;;;4912047;29;20435;-89
2023/08/05 07:14:26;;;;;;;4.90;1.67;;;17.90;99.90;;;;;;4911837;29;20418;-88
2023/08/05 07:16:52;;;;;;;4.93;1.40;;;17.90;99.90;;;;;;4911882;29;20466;-89
2023/08/05 07:19:18;;;;;;;3.70;1.42;;;18.00;99.90;;;;;;4911911;29;20415;-89
2023/08/05 07:21:43;;;;;;;4.07;1.50;;;18.00;99.90;;;;;;4926743;29;20430;-88
2023/08/05 07:24:09;;;;;;;3.25;1.45;;;18.10;99.90;;;;;;4911777;29;20419;-88
2023/08/05 07:26:34;;;;;;;5.03;1.37;;;18.00;99.90;;;;;;4914895;29;20896;-89
2023/08/05 07:29:00;;;;;;;4.85;1.48;;;18.20;99.90;;;;;;4931127;29;20510;-88
2023/08/05 07:31:26;;;;;;;4.23;1.30;;;18.50;99.90;;;;;;4930924;29;20415;-88
2023/08/05 07:33:51;;;;;;;3.28;1.05;;;18.50;99.90;;;;;;4914675;29;20563;-88
2023/08/05 07:36:17;;;;;;;4.80;1.37;;;18.70;99.90;;;;;;4914893;29;20420;-88
2023/08/05 07:38:45;;;;;;;3.70;1.00;;;18.80;99.90;;;;;;4930369;29;20435;-88
2023/08/05 07:41:12;;;;;;;3.40;1.20;;;19.00;99.90;;;;;;4930856;29;20470;-89
2023/08/05 07:43:38;;;;;;;3.83;1.30;;;18.90;99.90;;;;;;4931258;29;20419;-88
2023/08/05 07:46:05;;;;;;;3.75;1.00;;;19.30;99.90;;;;;;4914868;29;20422;-89
2023/08/05 07:48:35;;;;;;;4.30;1.20;;;19.40;99.90;;;;;;4930735;29;20480;-89
2023/08/05 07:51:02;;;;;;;4.07;1.17;;;19.20;99.90;;;;;;4915615;29;20414;-88
2023/08/05 07:53:30;;;;;;;2.58;1.00;;;19.20;99.90;;;;;;4914601;29;20539;-88
2023/08/05 07:55:56;;;;;;;4.53;1.38;;;19.20;99.90;;;;;;4930491;29;20412;-89
2023/08/05 07:58:22;;;;;;;3.80;1.58;;;19.10;99.90;;;;;;4915165;29;20499;-88
2023/08/05 08:00:47;;;;;;;4.47;1.50;;;19.10;99.90;;;;;;4914444;29;20415;-89
2023/08/05 08:03:13;;;;;;;4.50;1.83;;;19.20;99.90;;;;;;4914839;29;20828;-89
2023/08/05 08:05:38;;;;;;;4.43;1.50;;;19.30;99.90;;;;;;4914757;29;20416;-89
2023/08/05 08:08:04;;;;;;;3.30;1.43;;;19.40;99.90;;;;;;4930715;29;20418;-87
2023/08/05 08:10:29;;;;;;;3.00;1.30;;;19.50;99.90;;;;;;4914944;29;20974;-88
2023/08/05 08:12:55;;;;;;;3.00;1.20;;;19.50;99.90;;;;;;4932860;29;20435;-90
2023/08/05 08:15:21;;;;;;;3.77;1.50;;;19.60;99.90;;;;;;4914765;29;20682;-89
2023/08/05 08:17:46;;;;;;;3.65;1.42;;;19.60;99.90;;;;;;4914138;29;20411;-90
2023/08/05 08:20:12;;;;;;;4.63;1.27;;;19.50;99.90;;;;;;4914809;29;20543;-89
2023/08/05 08:22:38;;;;;;;4.43;1.40;;;19.40;99.90;;;;;;4929770;29;20942;-90
2023/08/05 08:25:04;;;;;;;3.77;1.40;;;19.70;99.90;;;;;;4930792;29;20879;-90
2023/08/05 08:27:30;;;;;;;2.47;1.30;;;19.30;99.90;;;;;;4914450;29;20439;-90
2023/08/05 08:29:55;;;;;;;4.75;1.33;;;19.30;99.90;;;;;;4914267;29;20502;-90
2023/08/05 08:32:21;;;;;;;3.43;1.30;;;19.60;99.90;;;;;;4930075;29;20483;-89
2023/08/05 08:34:47;;;;;;;3.53;1.40;;;19.60;99.90;;;;;;4913917;29;20442;-90
2023/08/05 08:37:12;;;;;;;2.85;1.50;;;19.60;99.90;;;;;;4929327;29;20512;-89
2023/08/05 08:39:38;;;;;;;3.50;1.43;;;20.00;99.90;;;;;;4914097;29;21297;-89
2023/08/05 08:42:04;;;;;;;3.15;1.40;;;19.70;99.90;;;;;;4914078;29;20926;-89
2023/08/05 08:44:32;;;;;;;4.57;1.50;;;19.90;99.90;;;;;;4929936;29;20408;-89
2023/08/05 08:46:57;;;;;;;3.75;1.50;;;20.00;99.90;;;;;;4914520;29;20455;-88
2023/08/05 08:49:23;;;;;;;4.15;1.40;;;20.00;99.90;;;;;;4914016;29;20447;-88
2023/08/05 08:51:51;;;;;;;3.50;1.40;;;20.00;99.90;;;;;;4929331;29;20439;-90
2023/08/05 08:54:20;;;;;;;3.38;1.23;;;20.00;99.90;;;;;;4913957;29;20966;-90
2023/08/05 08:56:46;;;;;;;3.80;1.60;;;20.00;99.90;;;;;;4929997;29;20447;-90
2023/08/05 08:59:12;;;;;;;3.70;1.60;;;20.00;99.90;;;;;;4930044;29;20455;-90
2023/08/05 09:01:39;;;;;;;4.67;1.50;;;20.10;99.90;;;;;;4914062;29;20483;-90
2023/08/05 09:04:07;;;;;;;3.55;1.35;;;20.30;99.90;;;;;;4929539;29;20411;-88
2023/08/05 09:06:34;;;;;;;4.28;1.58;;;20.70;99.90;;;;;;4913421;29;20415;-91
2023/08/05 09:08:59;;;;;;;3.60;1.13;;;20.60;99.90;;;;;;4913708;29;20507;-90
2023/08/05 09:11:25;;;;;;;3.13;1.27;;;20.70;98.00;;;;;;4913760;29;20857;-90
2023/08/05 09:13:53;;;;;;;4.00;1.27;;;20.80;96.30;;;;;;4913701;29;20432;-89
2023/08/05 09:16:18;;;;;;;3.38;1.15;;;21.20;92.60;;;;;;4914004;29;20415;-88
2023/08/05 09:19:02;;;;;;;3.37;1.27;;;20.70;93.70;;;;;;4913478;29;20467;-90
2023/08/05 09:21:28;;;;;;;4.35;1.33;;;20.70;93.60;;;;;;4913462;29;20426;-89
2023/08/05 09:23:55;;;;;;;3.47;1.50;;;20.60;95.10;;;;;;4913917;29;20756;-89
2023/08/05 09:26:28;;;;;;;3.78;1.30;;;20.60;92.20;;;;;;4912900;29;20455;-89
2023/08/05 09:28:56;;;;;;;3.67;1.30;;;20.80;94.60;;;;;;4913588;29;20504;-90
2023/08/05 09:31:21;;;;;;;3.20;1.40;;;20.60;97.30;;;;;;4912932;29;20416;-89
2023/08/05 09:33:47;;;;;;;3.00;1.20;;;20.90;96.00;;;;;;4913424;29;20415;-90
2023/08/05 09:36:14;;;;;;;5.25;1.27;;;20.60;97.90;;;;;;4913101;29;20427;-90
2023/08/05 09:38:41;;;;;;;4.13;1.30;;;20.90;99.90;;;;;;4913116;29;20779;-90
2023/08/05 09:41:07;;;;;;;2.60;1.10;;;21.00;95.70;;;;;;4913178;29;20502;-91
2023/08/05 09:43:43;;;;;;;2.63;0.90;;;21.10;95.30;;;;;;4928672;29;20419;-88
2023/08/05 09:46:12;;;;;;;1.57;0.70;;;21.30;86.00;;;;;;4912128;29;20494;-90
2023/08/05 09:48:44;;;;;;;1.95;0.80;;;21.60;78.60;;;;;;4911551;29;20423;-88
2023/08/05 09:51:15;;;;;;;2.42;0.88;;;21.60;75.00;;;;;;4912082;29;20491;-91
2023/08/05 09:53:42;;;;;;;3.40;1.20;;;21.80;71.40;;;;;;4911628;29;20420;-88
2023/08/05 09:56:10;;;;;;;2.75;1.13;;;22.00;75.10;;;;;;4911756;29;20490;-90
2023/08/05 09:58:37;;;;;;;3.70;1.10;;;22.10;76.20;;;;;;4911843;29;20412;-89
2023/08/05 10:01:07;;;;;;;2.43;0.90;;;22.10;74.40;;;;;;4928371;29;20498;-91
2023/08/05 10:03:37;;;;;;;3.95;1.10;;;21.90;77.30;;;;;;4928922;29;20933;-91
2023/08/05 10:06:05;;;;;;;2.75;1.08;;;22.10;73.70;;;;;;4928792;29;20440;-89
2023/08/05 10:08:33;;;;;;;2.65;1.00;;;22.00;75.90;;;;;;4928444;29;20419;-89
2023/08/05 10:11:00;;;;;;;2.42;0.90;;;22.00;76.40;;;;;;4912351;29;20498;-90
2023/08/05 10:13:26;;;;;;;3.42;0.90;;;22.20;73.40;;;;;;4912546;29;20439;-89
2023/08/05 10:15:53;;;;;;;2.70;0.97;;;22.50;72.10;;;;;;4912613;29;20431;-91
2023/08/05 10:18:20;;;;;;;3.03;1.10;;;22.30;72.20;;;;;;4927875;29;20416;-90
2023/08/05 10:20:51;;;;;;;3.55;1.00;;;22.70;71.70;;;;;;4924880;29;20439;-91
2023/08/05 10:23:17;;;;;;;2.03;0.90;;;22.40;66.40;;;;;;4912146;29;20423;-89
2023/08/05 10:25:45;;;;;;;3.13;0.90;;;22.80;72.80;;;;;;4928495;29;20420;-90
2023/08/05 10:28:33;;;;;;;2.63;1.10;;;22.60;67.20;;;;;;4912255;29;20420;-91
2023/08/05 10:31:21;;;;;;;3.05;0.80;;;22.80;69.60;;;;;;4913022;29;20547;-92
2023/08/05 10:34:16;;;;;;;2.50;1.10;;;23.10;69.50;;;;;;4912839;29;20419;-89
2023/08/05 10:36:44;;;;;;;2.88;1.00;;;23.30;64.70;;;;;;4913357;29;20768;-92
2023/08/05 10:39:42;;;;;;;2.97;1.10;;;23.20;65.40;;;;;;4913561;29;20407;-92
2023/08/05 10:42:19;;;;;;;2.50;0.70;;;23.50;65.60;;;;;;4911104;29;20427;-92
2023/08/05 10:44:53;;;;;;;1.77;0.60;;;23.50;62.10;;;;;;4912545;29;20423;-86
2023/08/05 10:47:24;;;;;;;1.95;0.77;;;23.60;63.80;;;;;;4913277;29;20965;-93
2023/08/05 10:49:54;;;;;;;2.97;0.90;;;23.90;63.80;;;;;;4911836;29;21006;-91
2023/08/05 10:52:21;;;;;;;2.72;0.88;;;23.60;64.20;;;;;;4912693;29;20856;-90
2023/08/05 10:54:47;;;;;;;3.42;1.10;;;23.60;62.40;;;;;;4912773;29;20847;-94
2023/08/05 10:57:34;;;;;;;2.08;0.82;;;23.40;65.10;;;;;;4927748;29;20416;-92
2023/08/05 11:00:01;;;;;;;2.78;0.73;;;23.20;63.20;;;;;;4915364;29;20807;-89
2023/08/05 11:02:26;;;;;;;2.75;1.00;;;23.00;61.80;;;;;;4918313;29;20453;-90
2023/08/05 11:05:06;;;;;;;2.87;1.10;;;22.70;62.60;;;;;;4926770;29;20441;-90
2023/08/05 11:07:39;;;;;;;3.17;0.95;;;22.50;64.90;;;;;;4954380;29;20500;-88
2023/08/05 11:10:05;;;;;;;3.40;1.30;;;22.30;65.30;;;;;;4937811;29;20417;-89
2023/08/05 11:12:31;;;;;;;3.15;1.20;;;22.20;71.60;;;;;;4937465;29;20483;-91
2023/08/05 11:14:58;;;;;;;2.85;1.10;;;22.10;69.90;;;;;;4953287;28;21011;-92
2023/08/05 11:17:24;;;;;;;2.67;1.38;;;22.10;70.90;;;;;;4937776;29;20414;-90
2023/08/05 11:19:54;;;;;;;2.20;1.17;;;22.10;74.90;;;;;;4953420;29;20420;-90
2023/08/05 11:22:27;;;;;;;3.50;1.08;;;22.50;75.60;;;;;;4969765;28;20417;-91
2023/08/05 11:24:57;;;;;;;292.38;268.33;;;22.50;76.70;;;;;;4937657;29;20425;-91
2023/08/05 11:27:33;;;;;;;25.45;23.20;;;22.20;74.60;;;;;;4936878;29;20469;-90
2023/08/05 11:30:13;;;;;;;19.20;17.48;;;22.10;72.70;;;;;;4953976;29;20496;-90
2023/08/05 11:32:50;;;;;;;12.00;10.73;;;22.00;75.50;;;;;;4936569;29;20532;-92
2023/08/05 11:35:16;;;;;;;2.72;1.50;;;21.90;78.80;;;;;;4953853;29;20907;-91
2023/08/05 11:37:41;;;;;;;4.50;1.85;;;21.90;79.20;;;;;;4936883;29;20437;-88
2023/08/05 11:40:07;;;;;;;3.90;1.52;;;22.20;91.10;;;;;;4969315;28;20421;-91
2023/08/05 11:42:35;;;;;;;3.20;1.33;;;22.40;80.10;;;;;;4937630;29;20923;-91
2023/08/05 11:45:01;;;;;;;2.67;1.40;;;22.50;80.70;;;;;;4937270;29;20568;-92
2023/08/05 11:47:27;;;;;;;3.35;1.40;;;22.90;71.30;;;;;;4969560;28;20513;-89
2023/08/05 11:49:54;;;;;;;2.30;1.17;;;22.70;69.30;;;;;;4953624;29;20437;-92
2023/08/05 11:52:20;;;;;;;2.55;1.33;;;22.90;67.20;;;;;;4985519;28;20448;-91
2023/08/05 11:54:56;;;;;;;2.83;1.57;;;22.50;70.40;;;;;;4969488;28;20422;-92
2023/08/05 11:57:22;;;;;;;2.80;1.65;;;22.40;75.80;;;;;;4937175;29;20492;-93
2023/08/05 11:59:48;;;;;;;4.32;1.80;;;22.20;71.10;;;;;;4969161;28;20500;-92
2023/08/05 12:02:15;;;;;;;2.97;1.70;;;21.90;72.10;;;;;;4969183;28;20402;-93
2023/08/05 12:04:48;;;;;;;3.85;1.67;;;21.70;74.30;;;;;;4937258;29;20413;-92
2023/08/05 12:07:16;;;;;;;3.53;1.43;;;21.60;76.30;;;;;;4918571;29;20981;-93
2023/08/05 12:09:42;;;;;;;3.05;1.50;;;21.40;81.80;;;;;;4949949;29;20420;-90
2023/08/05 12:12:28;;;;;;;3.17;1.55;;;21.40;83.40;;;;;;4932362;29;20847;-91
2023/08/05 12:15:24;;;;;;;4.25;1.73;;;21.40;81.70;;;;;;4916025;29;20470;-90
2023/08/05 12:18:01;;;;;;;3.38;1.88;;;21.30;81.90;;;;;;4937551;29;20745;-93
2023/08/05 12:20:32;;;;;;;4.40;2.20;;;21.20;90.90;;;;;;4933678;29;20440;-89
2023/08/05 12:22:58;;;;;;;7.93;4.85;;;21.10;91.70;;;;;;4949981;29;20429;-87
2023/08/05 12:25:25;;;;;;;9.35;6.22;;;20.90;99.90;;;;;;4949119;29;20421;-89
2023/08/05 12:27:51;;;;;;;8.15;7.35;;;19.70;99.90;;;;;;4948446;28;20430;-87
2023/08/05 12:30:17;;;;;;;11.90;8.80;;;18.90;99.90;;;;;;4948685;29;20418;-89
2023/08/05 12:32:42;;;;;;;9.45;7.63;;;18.50;99.90;;;;;;4948067;29;20845;-88
2023/08/05 12:35:09;;;;;;;8.53;7.70;;;18.40;99.90;;;;;;4933022;29;20425;-86
2023/08/05 12:37:36;;;;;;;9.18;8.18;;;18.30;99.90;;;;;;4948739;29;20445;-90
2023/08/05 12:40:03;;;;;;;9.18;7.45;;;18.60;99.90;;;;;;4933039;29;20413;-90
2023/08/05 12:42:29;;;;;;;8.60;7.38;;;18.40;99.90;;;;;;4932895;29;20480;-89